createdAt,value
2023-02-18T00:04:37.000Z,1.1
2023-02-18T00:09:31.000Z,0.9
2023-02-18T00:14:24.000Z,0.9
2023-02-18T00:19:18.000Z,1.1
2023-02-18T00:24:12.000Z,0.9
2023-02-18T00:29:06.000Z,0.9
2023-02-18T00:34:00.000Z,0.8
2023-02-18T00:38:53.000Z,0.8
2023-02-18T00:43:46.000Z,0.7
2023-02-18T00:48:41.000Z,0.8
2023-02-18T00:53:34.000Z,0.7
2023-02-18T00:58:28.000Z,0.8
2023-02-18T01:03:23.000Z,0.8
2023-02-18T01:08:17.000Z,0.8
2023-02-18T01:13:10.000Z,0.9
2023-02-18T01:18:03.000Z,1.1
2023-02-18T01:22:57.000Z,0.7
2023-02-18T01:27:51.000Z,0.5
2023-02-18T01:32:44.000Z,0.7
2023-02-18T01:37:37.000Z,0.6
2023-02-18T01:42:31.000Z,0.7
2023-02-18T01:47:25.000Z,0.5
2023-02-18T01:52:19.000Z,0.6
2023-02-18T01:57:12.000Z,0.6
2023-02-18T02:02:06.000Z,0.6
2023-02-18T02:06:56.000Z,0.6
2023-02-18T02:11:50.000Z,0.8
2023-02-18T02:16:43.000Z,1
2023-02-18T02:21:37.000Z,0.9
2023-02-18T02:26:31.000Z,1.2
2023-02-18T02:31:24.000Z,1.1
2023-02-18T02:36:17.000Z,1.2
2023-02-18T02:41:11.000Z,1.1
2023-02-18T02:46:04.000Z,1
2023-02-18T02:50:58.000Z,1.2
2023-02-18T02:55:52.000Z,1
2023-02-18T03:00:45.000Z,1.6
2023-02-18T03:05:40.000Z,1.9
2023-02-18T03:10:31.000Z,1.3
2023-02-18T03:15:23.000Z,0.8
2023-02-18T03:20:17.000Z,0.8
2023-02-18T03:25:11.000Z,0.7
2023-02-18T03:30:05.000Z,0.5
2023-02-18T03:34:59.000Z,0.4
2023-02-18T03:39:54.000Z,0.4
2023-02-18T03:44:47.000Z,0.4
2023-02-18T03:49:41.000Z,0.3
2023-02-18T03:54:34.000Z,0.4
2023-02-18T03:59:28.000Z,0.4
2023-02-18T04:04:22.000Z,0.4
2023-02-18T04:09:16.000Z,0.4
2023-02-18T04:14:09.000Z,0.4
2023-02-18T04:19:03.000Z,0.6
2023-02-18T04:23:57.000Z,0.6
2023-02-18T04:28:52.000Z,0.8
2023-02-18T04:33:46.000Z,0.5
2023-02-18T04:38:40.000Z,0.5
2023-02-18T04:43:30.000Z,0.5
2023-02-18T04:48:22.000Z,0.6
2023-02-18T04:53:15.000Z,0.5
2023-02-18T04:58:10.000Z,0.5
2023-02-18T05:03:04.000Z,0.5
2023-02-18T05:07:58.000Z,0.5
2023-02-18T05:12:51.000Z,0.5
2023-02-18T05:17:45.000Z,0.6
2023-02-18T05:22:38.000Z,0.6
2023-02-18T05:27:32.000Z,0.7
2023-02-18T05:32:27.000Z,0.7
2023-02-18T05:37:20.000Z,0.7
2023-02-18T05:42:14.000Z,0.5
2023-02-18T05:47:08.000Z,0.6
2023-02-18T05:52:02.000Z,0.6
2023-02-18T05:56:56.000Z,0.8
2023-02-18T06:01:50.000Z,0.9
2023-02-18T06:06:43.000Z,1.5
2023-02-18T06:11:37.000Z,1.8
2023-02-18T06:16:28.000Z,1.8
2023-02-18T06:21:22.000Z,1.8
2023-02-18T06:26:16.000Z,1.9
2023-02-18T06:31:10.000Z,1.8
2023-02-18T06:36:04.000Z,1.8
2023-02-18T06:40:58.000Z,4
2023-02-18T06:45:52.000Z,1.8
2023-02-18T06:50:46.000Z,1.5
2023-02-18T06:55:39.000Z,1.3
2023-02-18T07:00:32.000Z,0.9
2023-02-18T07:05:26.000Z,0.6
2023-02-18T07:10:20.000Z,0.5
2023-02-18T07:15:14.000Z,0.3
2023-02-18T07:20:09.000Z,0.3
2023-02-18T07:25:00.000Z,0.4
2023-02-18T07:29:53.000Z,0.3
2023-02-18T07:34:46.000Z,0.3
2023-02-18T07:39:40.000Z,0.3
2023-02-18T07:44:34.000Z,0.3
2023-02-18T07:49:28.000Z,0.2
2023-02-18T07:54:26.000Z,0.3
2023-02-18T07:59:16.000Z,0.2
2023-02-18T08:04:09.000Z,0.5
2023-02-18T08:09:03.000Z,0.4
2023-02-18T08:13:58.000Z,0.7
2023-02-18T08:18:51.000Z,0.5
2023-02-18T08:23:45.000Z,0.5
2023-02-18T08:28:39.000Z,0.7
2023-02-18T08:33:33.000Z,0.7
2023-02-18T08:38:28.000Z,0.7
2023-02-18T08:43:22.000Z,0.8
2023-02-18T08:48:14.000Z,0.9
2023-02-18T08:53:09.000Z,0.6
2023-02-18T08:58:03.000Z,0.6
2023-02-18T09:02:57.000Z,0.4
2023-02-18T09:07:51.000Z,0.2
2023-02-18T09:12:45.000Z,0.3
2023-02-18T09:17:39.000Z,0.2
2023-02-18T09:22:33.000Z,0.2
2023-02-18T09:27:27.000Z,0.1
2023-02-18T09:32:21.000Z,0.3
2023-02-18T09:37:15.000Z,0.3
2023-02-18T09:42:11.000Z,0.3
2023-02-18T09:47:03.000Z,0.3
2023-02-18T09:51:57.000Z,0.3
2023-02-18T09:56:51.000Z,0.4
2023-02-18T10:01:46.000Z,0.4
2023-02-18T10:06:40.000Z,0.4
2023-02-18T10:11:32.000Z,0.6
2023-02-18T10:16:27.000Z,0.5
2023-02-18T10:21:21.000Z,0.6
2023-02-18T10:26:13.000Z,0.4
2023-02-18T10:31:07.000Z,0.4
2023-02-18T10:36:01.000Z,0.4
2023-02-18T10:40:55.000Z,0.4
2023-02-18T10:45:49.000Z,0.6
2023-02-18T10:50:43.000Z,0.7
2023-02-18T10:55:37.000Z,0.8
2023-02-18T11:00:33.000Z,0.7
2023-02-18T11:05:26.000Z,1
2023-02-18T11:10:19.000Z,0.9
2023-02-18T11:15:12.000Z,1
2023-02-18T11:20:07.000Z,1
2023-02-18T11:25:02.000Z,0.8
2023-02-18T11:29:55.000Z,0.8
2023-02-18T11:34:48.000Z,1.3
2023-02-18T11:39:42.000Z,0.8
2023-02-18T11:44:36.000Z,0.8
2023-02-18T11:49:30.000Z,1
2023-02-18T11:54:24.000Z,0.9
2023-02-18T11:59:19.000Z,0.9
2023-02-18T12:04:13.000Z,1
2023-02-18T12:09:06.000Z,1.1
2023-02-18T12:14:00.000Z,1.2
2023-02-18T12:18:51.000Z,1.3
2023-02-18T12:23:45.000Z,1.3
2023-02-18T12:28:37.000Z,1.6
2023-02-18T12:33:31.000Z,1.5
2023-02-18T12:38:25.000Z,2
2023-02-18T12:43:20.000Z,1.4
2023-02-18T12:48:14.000Z,1.3
2023-02-18T12:53:08.000Z,1.5
2023-02-18T12:58:02.000Z,1.1
2023-02-18T13:02:56.000Z,0.8
2023-02-18T13:07:51.000Z,1.2
2023-02-18T13:12:46.000Z,0.9
2023-02-18T13:17:39.000Z,0.8
2023-02-18T13:22:34.000Z,0.8
2023-02-18T13:27:30.000Z,0.9
2023-02-18T13:32:21.000Z,1.8
2023-02-18T13:37:15.000Z,0.8
2023-02-18T13:42:09.000Z,0.7
2023-02-18T13:47:03.000Z,0.8
2023-02-18T13:51:58.000Z,0.7
2023-02-18T13:56:52.000Z,0.8
2023-02-18T14:01:46.000Z,0.6
2023-02-18T14:06:43.000Z,0.7
2023-02-18T14:11:34.000Z,0.7
2023-02-18T14:16:28.000Z,0.7
2023-02-18T14:21:21.000Z,0.8
2023-02-18T14:26:15.000Z,0.9
2023-02-18T14:31:09.000Z,1.2
2023-02-18T14:36:03.000Z,1.2
2023-02-18T14:40:56.000Z,1.2
2023-02-18T14:45:50.000Z,1.3
2023-02-18T14:50:43.000Z,1.3
2023-02-18T14:55:37.000Z,1.4
2023-02-18T15:00:31.000Z,1.4
2023-02-18T15:05:25.000Z,1.9
2023-02-18T15:10:20.000Z,2.7
2023-02-18T15:15:14.000Z,2.4
2023-02-18T15:20:09.000Z,2.1
2023-02-18T15:25:03.000Z,1.9
2023-02-18T15:29:57.000Z,1.6
2023-02-18T15:34:51.000Z,1.2
2023-02-18T15:39:45.000Z,1.1
2023-02-18T15:44:40.000Z,1.2
2023-02-18T15:49:32.000Z,1.3
2023-02-18T15:54:26.000Z,1.2
2023-02-18T15:59:20.000Z,1.4
2023-02-18T16:04:14.000Z,1.2
2023-02-18T16:09:08.000Z,1.4
2023-02-18T16:14:03.000Z,1.1
2023-02-18T16:18:57.000Z,1.2
2023-02-18T16:23:51.000Z,1.1
2023-02-18T16:28:45.000Z,1
2023-02-18T16:33:39.000Z,1.1
2023-02-18T16:38:33.000Z,0.9
2023-02-18T16:43:27.000Z,0.8
2023-02-18T16:48:21.000Z,1
2023-02-18T16:53:15.000Z,0.9
2023-02-18T16:58:09.000Z,1.1
2023-02-18T17:03:02.000Z,1.2
2023-02-18T17:07:57.000Z,1
2023-02-18T17:12:50.000Z,1.2
2023-02-18T17:17:44.000Z,2.6
2023-02-18T17:22:38.000Z,1.3
2023-02-18T17:27:32.000Z,1.9
2023-02-18T17:32:26.000Z,1.7
2023-02-18T17:37:20.000Z,11.1
2023-02-18T17:42:14.000Z,4.2
2023-02-18T17:47:08.000Z,2.4
2023-02-18T17:52:04.000Z,2.2
2023-02-18T17:56:54.000Z,2.2
2023-02-18T18:01:48.000Z,2.1
2023-02-18T18:06:42.000Z,2.4
2023-02-18T18:11:37.000Z,2.6
2023-02-18T18:16:32.000Z,4.1
2023-02-18T18:21:23.000Z,3.6
2023-02-18T18:26:15.000Z,3
2023-02-18T18:31:09.000Z,3
2023-02-18T18:36:02.000Z,3.3
2023-02-18T18:40:56.000Z,2.9
2023-02-18T18:45:50.000Z,2.9
2023-02-18T18:50:44.000Z,2.8
2023-02-18T18:55:38.000Z,3.5
2023-02-18T19:00:31.000Z,3.4
2023-02-18T19:05:25.000Z,3.6
2023-02-18T19:10:18.000Z,3.9
2023-02-18T19:15:11.000Z,3.8
2023-02-18T19:20:06.000Z,3.8
2023-02-18T19:24:59.000Z,3.8
2023-02-18T19:29:52.000Z,3.8
2023-02-18T19:34:46.000Z,3.5
2023-02-18T19:39:40.000Z,3.5
2023-02-18T19:44:34.000Z,3.4
2023-02-18T19:49:27.000Z,3.7
2023-02-18T19:54:21.000Z,3.8
2023-02-18T19:59:15.000Z,3.3
2023-02-18T20:04:09.000Z,3.7
2023-02-18T20:09:03.000Z,3.5
2023-02-18T20:13:57.000Z,3.8
2023-02-18T20:18:50.000Z,3.8
2023-02-18T20:23:44.000Z,3.5
2023-02-18T20:28:38.000Z,3.3
2023-02-18T20:33:32.000Z,3.2
2023-02-18T20:38:25.000Z,3.5
2023-02-18T20:43:19.000Z,3.6
2023-02-18T20:48:13.000Z,3.6
2023-02-18T20:53:07.000Z,3.7
2023-02-18T20:58:01.000Z,3.5
2023-02-18T21:02:55.000Z,3.5
2023-02-18T21:07:48.000Z,3.8
2023-02-18T21:12:41.000Z,3.6
2023-02-18T21:17:36.000Z,3.8
2023-02-18T21:22:34.000Z,4
2023-02-18T21:27:24.000Z,3.7
2023-02-18T21:32:17.000Z,4.2
2023-02-18T21:37:11.000Z,3.5
2023-02-18T21:42:05.000Z,5.4
2023-02-18T21:47:00.000Z,4.9
2023-02-18T21:51:52.000Z,5
2023-02-18T21:56:46.000Z,4.4
2023-02-18T22:01:40.000Z,4.9
2023-02-18T22:06:34.000Z,5.4
2023-02-18T22:11:28.000Z,4.7
2023-02-18T22:16:19.000Z,4.8
2023-02-18T22:21:12.000Z,5
2023-02-18T22:26:06.000Z,5.3
2023-02-18T22:31:00.000Z,5.6
2023-02-18T22:35:51.000Z,5.7
2023-02-18T22:40:44.000Z,6
2023-02-18T22:45:39.000Z,6.9
2023-02-18T22:50:33.000Z,5.9
2023-02-18T22:55:28.000Z,5.6
2023-02-18T23:00:24.000Z,6.2
2023-02-18T23:05:13.000Z,5.5
2023-02-18T23:10:10.000Z,5.9
2023-02-18T23:15:02.000Z,6
2023-02-18T23:19:56.000Z,5.8
2023-02-18T23:24:50.000Z,5.7
2023-02-18T23:29:44.000Z,5.9
2023-02-18T23:34:40.000Z,5.7
2023-02-18T23:39:30.000Z,5.3
2023-02-18T23:44:24.000Z,5.4
2023-02-18T23:49:18.000Z,5.3
2023-02-18T23:54:09.000Z,5.3
2023-02-18T23:59:03.000Z,5.3
